Clarkson, NY (14430)

7:13 AM EDT on August 21, 2019 (GMT -0400)
Clarkson Meadows | | Change Station

Elev 371 ft 43.25 °N, 77.91 °W | Updated 3 seconds ago

Rain
Rain
67.1 °F
Feels Like 67.1 °F
N
0
Wind Variable Wind from WSW
Gusts 0.0 mph

Today
High -- | Low -- °F
--% Chance of Precip.
Yesterday
High -- | Low -- °F
Precip. -- in
Pressure 29.89 in
Visibility 6.0 miles
Clouds Mostly Cloudy 8000 ft
Overcast 11000 ft
Dew Point 62 °F
Humidity 82%
Rainfall 0.15 in
Snow Depth Not available.
6:23 AM 8:05 PM
Waning Gibbous, 71% visible
METAR KROC 211054Z 23006KT 6SM RA BR BKN080 OVC110 20/18 A2990 RMK AO2 SLP122 P0002 T02000183
Pressure 29.89 in
Visibility 6.0 miles
Clouds Mostly Cloudy 8000 ft
Overcast 11000 ft
Dew Point 62 °F
Humidity 82%
Rainfall 0.15 in
Snow Depth Not available.
6:23 AM 8:05 PM
Waning Gibbous, 71% visible
METAR KROC 211054Z 23006KT 6SM RA BR BKN080 OVC110 20/18 A2990 RMK AO2 SLP122 P0002 T02000183

Get Severe Weather Alerts

Thanks for signing up!

Be on the lookout for a verification email in your inbox.

You'll start receiving the daily forecast at 6 AM.

×

10-Day Weather Forecast

Almanac

Astronomy

Aug. 21, 2019 Rise Set
Actual Time
Civil Twilight
Nautical Twilight
Astronomical Twilight
Moon
Length of Visible Light
Length of Day
Tomorrow will be .
, % of the Moon is Illuminated

Today's Extremes

State Highs State Lows

Community

WunderPhotos

Category 6

Welcome to Category 6. This is the collective home for Weather Underground's featured writeups by Dr. Jeff Masters (right), Bob Henson (left), Chris Burt, and other regular contributors.

Nearby

Air Quality

  Air Quality AQ Index Pollutant
Not available.

Snow Depth

Station Depth Elevation

Earthquake Activity

City Distance Mag. Time & Date
Minimum magnitude displayed is 2.5.

Coastal Water Temperatures

Place Temperature

Stations

Nearby Weather Stations

Station Location Temp. Windchill Dew Point Humidity Wind Precip. Elev Updated Type
                   

Watches & Warnings

There are currently no watches in effect.